createdAt,value
2023-05-19T00:00:37.314Z,11.17
2023-05-19T00:03:05.059Z,11.07
2023-05-19T00:05:32.020Z,11.14
2023-05-19T00:08:00.808Z,11.00
2023-05-19T00:10:31.654Z,10.94
2023-05-19T00:12:59.076Z,11.00
2023-05-19T00:15:25.983Z,11.06
2023-05-19T00:17:52.588Z,10.99
2023-05-19T00:20:19.253Z,10.93
2023-05-19T00:22:45.895Z,10.84
2023-05-19T00:25:12.550Z,10.80
2023-05-19T00:27:39.109Z,10.73
2023-05-19T00:30:08.379Z,10.68
2023-05-19T00:32:35.117Z,10.73
2023-05-19T00:35:01.697Z,10.77
2023-05-19T00:37:28.290Z,10.52
2023-05-19T00:39:54.828Z,10.62
2023-05-19T00:42:21.533Z,10.46
2023-05-19T00:44:48.252Z,10.45
2023-05-19T00:47:14.840Z,10.42
2023-05-19T00:49:41.573Z,10.22
2023-05-19T00:52:08.249Z,10.29
2023-05-19T00:54:34.901Z,10.20
2023-05-19T00:57:01.645Z,10.17
2023-05-19T00:59:28.221Z,10.25
2023-05-19T01:01:54.930Z,10.31
2023-05-19T01:04:22.325Z,10.45
2023-05-19T01:06:57.964Z,10.38
2023-05-19T01:09:24.546Z,10.29
2023-05-19T01:11:51.439Z,10.18
2023-05-19T01:14:19.666Z,10.12
2023-05-19T01:17:05.517Z,9.95
2023-05-19T01:20:02.118Z,9.98
2023-05-19T01:22:43.044Z,9.87
2023-05-19T01:25:47.465Z,9.69
2023-05-19T01:28:41.871Z,9.57
2023-05-19T01:31:11.822Z,9.50
2023-05-19T01:33:41.144Z,9.52
2023-05-19T01:36:08.449Z,9.44
2023-05-19T01:38:37.983Z,9.38
2023-05-19T01:41:06.619Z,9.52
2023-05-19T01:43:33.412Z,9.39
2023-05-19T01:46:01.317Z,9.39
2023-05-19T01:48:29.075Z,9.52
2023-05-19T01:50:57.449Z,9.46
2023-05-19T01:53:24.966Z,9.43
2023-05-19T01:55:57.309Z,9.31
2023-05-19T01:58:41.520Z,9.33
2023-05-19T02:01:23.050Z,9.26
2023-05-19T02:04:16.302Z,9.38
2023-05-19T02:07:01.366Z,9.46
2023-05-19T02:09:52.166Z,9.40
2023-05-19T02:12:27.935Z,9.40
2023-05-19T02:14:57.727Z,9.39
2023-05-19T02:17:29.803Z,9.31
2023-05-19T02:19:56.860Z,9.22
2023-05-19T02:22:23.409Z,8.84
2023-05-19T02:24:51.672Z,8.91
2023-05-19T02:27:18.747Z,8.89
2023-05-19T02:29:45.344Z,8.78
2023-05-19T02:32:12.163Z,8.77
2023-05-19T02:34:38.783Z,8.77
2023-05-19T02:37:05.593Z,8.67
2023-05-19T02:39:35.146Z,8.67
2023-05-19T02:42:01.701Z,8.64
2023-05-19T02:44:28.440Z,8.68
2023-05-19T02:46:55.083Z,8.78
2023-05-19T02:49:21.618Z,8.73
2023-05-19T02:51:48.238Z,8.71
2023-05-19T02:54:14.765Z,8.59
2023-05-19T02:56:41.321Z,8.53
2023-05-19T02:59:08.099Z,8.46
2023-05-19T03:01:34.702Z,8.47
2023-05-19T03:04:01.473Z,8.50
2023-05-19T03:06:28.271Z,8.54
2023-05-19T03:08:54.847Z,8.63
2023-05-19T03:11:23.296Z,8.64
2023-05-19T03:13:49.957Z,8.61
2023-05-19T03:16:16.442Z,8.64
2023-05-19T03:18:43.055Z,8.39
2023-05-19T03:21:09.800Z,8.26
2023-05-19T03:23:36.334Z,8.26
2023-05-19T03:26:04.227Z,8.29
2023-05-19T03:28:30.854Z,8.26
2023-05-19T03:30:57.467Z,8.29
2023-05-19T03:33:24.228Z,8.25
2023-05-19T03:35:53.060Z,8.23
2023-05-19T03:38:19.643Z,8.30
2023-05-19T03:40:46.156Z,8.16
2023-05-19T03:43:13.156Z,8.15
2023-05-19T03:45:40.061Z,8.18
2023-05-19T03:48:06.757Z,8.29
2023-05-19T03:50:34.151Z,8.33
2023-05-19T03:53:01.035Z,8.13
2023-05-19T03:55:29.907Z,8.13
2023-05-19T03:57:57.277Z,8.33
2023-05-19T04:00:24.765Z,8.12
2023-05-19T04:02:51.447Z,8.15
2023-05-19T04:05:21.101Z,8.15
2023-05-19T04:07:47.665Z,8.23
2023-05-19T04:10:17.472Z,8.23
2023-05-19T04:12:44.008Z,8.18
2023-05-19T04:15:13.694Z,8.12
2023-05-19T04:17:40.619Z,8.16
2023-05-19T04:20:07.623Z,8.26
2023-05-19T04:22:34.260Z,8.40
2023-05-19T04:25:00.919Z,8.39
2023-05-19T04:27:29.124Z,8.39
2023-05-19T04:29:56.164Z,8.39
2023-05-19T04:32:22.962Z,8.52
2023-05-19T04:34:49.477Z,8.56
2023-05-19T04:37:20.006Z,8.53
2023-05-19T04:39:46.502Z,8.63
2023-05-19T04:42:13.421Z,8.56
2023-05-19T04:44:40.322Z,8.65
2023-05-19T04:47:08.849Z,8.61
2023-05-19T04:49:39.012Z,8.78
2023-05-19T04:52:11.670Z,8.85
2023-05-19T04:54:39.368Z,8.91
2023-05-19T04:57:06.402Z,9.12
2023-05-19T04:59:32.963Z,9.14
2023-05-19T05:01:59.855Z,9.36
2023-05-19T05:04:26.560Z,9.50
2023-05-19T05:06:53.059Z,9.50
2023-05-19T05:09:20.160Z,9.54
2023-05-19T05:11:46.916Z,9.60
2023-05-19T05:14:13.710Z,9.70
2023-05-19T05:16:40.896Z,9.70
2023-05-19T05:19:07.914Z,10.04
2023-05-19T05:21:34.746Z,9.93
2023-05-19T05:24:01.599Z,9.98
2023-05-19T05:26:34.502Z,10.11
2023-05-19T05:29:01.824Z,10.18
2023-05-19T05:31:28.730Z,10.31
2023-05-19T05:33:55.552Z,10.32
2023-05-19T05:36:22.139Z,10.65
2023-05-19T05:38:48.732Z,10.53
2023-05-19T05:41:16.030Z,10.68
2023-05-19T05:43:42.594Z,10.83
2023-05-19T05:46:09.276Z,10.80
2023-05-19T05:48:36.132Z,10.86
2023-05-19T05:51:03.071Z,10.93
2023-05-19T05:53:32.270Z,11.06
2023-05-19T05:55:59.430Z,11.03
2023-05-19T05:58:25.939Z,11.06
2023-05-19T06:00:53.510Z,11.17
2023-05-19T06:03:24.277Z,11.28
2023-05-19T06:05:51.137Z,11.35
2023-05-19T06:08:17.915Z,11.57
2023-05-19T06:10:47.097Z,11.75
2023-05-19T06:13:14.079Z,11.72
2023-05-19T06:15:50.046Z,11.82
2023-05-19T06:18:20.063Z,11.90
2023-05-19T06:20:46.564Z,11.96
2023-05-19T06:23:13.139Z,12.00
2023-05-19T06:25:39.651Z,12.24
2023-05-19T06:28:09.325Z,12.40
2023-05-19T06:35:39.104Z,12.78
2023-05-19T06:38:05.825Z,12.86
2023-05-19T06:40:32.514Z,12.91
2023-05-19T06:42:59.378Z,12.96
2023-05-19T06:45:26.004Z,13.13
2023-05-19T06:47:54.128Z,13.18
2023-05-19T06:50:20.966Z,13.36
2023-05-19T06:52:47.467Z,13.44
2023-05-19T06:55:13.962Z,13.60
2023-05-19T06:57:40.484Z,13.68
2023-05-19T07:00:11.496Z,13.71
2023-05-19T07:02:39.163Z,13.75
2023-05-19T07:05:06.061Z,13.93
2023-05-19T07:07:32.542Z,14.05
2023-05-19T07:09:59.244Z,14.11
2023-05-19T07:12:26.608Z,14.22
2023-05-19T07:14:53.403Z,14.21
2023-05-19T07:17:20.512Z,14.32
2023-05-19T07:19:47.079Z,14.36
2023-05-19T07:22:15.134Z,14.43
2023-05-19T07:24:41.647Z,14.40
2023-05-19T07:27:08.455Z,14.62
2023-05-19T07:29:34.979Z,14.76
2023-05-19T07:32:01.537Z,14.95
2023-05-19T07:34:28.224Z,15.05
2023-05-19T07:36:54.868Z,15.10
2023-05-19T07:39:21.572Z,15.03
2023-05-19T07:41:52.746Z,14.97
2023-05-19T07:44:19.552Z,14.98
2023-05-19T07:46:46.047Z,15.17
2023-05-19T07:49:12.619Z,15.39
2023-05-19T07:51:39.296Z,15.48
2023-05-19T07:54:05.860Z,15.39
2023-05-19T07:56:32.369Z,15.46
2023-05-19T07:58:58.872Z,15.65
2023-05-19T08:01:26.161Z,15.51
2023-05-19T08:03:53.191Z,15.51
2023-05-19T08:06:19.951Z,16.21
2023-05-19T08:08:47.294Z,17.03
2023-05-19T08:11:14.110Z,17.98
2023-05-19T08:13:41.127Z,18.19
2023-05-19T08:16:07.964Z,19.23
2023-05-19T08:18:34.583Z,20.01
2023-05-19T08:21:01.482Z,21.40
2023-05-19T08:23:28.029Z,21.99
2023-05-19T08:25:54.575Z,21.61
2023-05-19T08:28:21.061Z,20.94
2023-05-19T08:30:47.635Z,21.75
2023-05-19T08:33:14.227Z,20.71
2023-05-19T08:35:40.902Z,21.11
2023-05-19T08:38:07.399Z,19.91
2023-05-19T08:40:37.437Z,20.49
2023-05-19T08:43:04.053Z,22.59
2023-05-19T08:45:31.612Z,21.14
2023-05-19T08:47:58.475Z,20.01
2023-05-19T08:50:30.806Z,21.81
2023-05-19T08:53:32.372Z,21.82
2023-05-19T08:56:11.235Z,22.23
2023-05-19T08:58:43.792Z,21.95
2023-05-19T09:01:17.684Z,21.48
2023-05-19T09:03:46.000Z,22.18
2023-05-19T09:06:13.295Z,22.33
2023-05-19T09:08:41.114Z,22.80
2023-05-19T09:11:09.579Z,23.34
2023-05-19T09:13:36.502Z,23.97
2023-05-19T09:16:03.732Z,23.79
2023-05-19T09:18:31.273Z,24.24
2023-05-19T09:21:03.231Z,23.69
2023-05-19T09:23:33.582Z,21.52
2023-05-19T09:26:07.451Z,20.41
2023-05-19T09:28:36.328Z,19.50
2023-05-19T09:31:10.225Z,19.71
2023-05-19T09:33:45.487Z,20.93
2023-05-19T09:36:12.822Z,19.93
2023-05-19T09:38:40.158Z,21.17
2023-05-19T09:41:08.487Z,21.28
2023-05-19T09:43:35.577Z,21.41
2023-05-19T09:46:07.519Z,20.94
2023-05-19T09:48:36.443Z,21.02
2023-05-19T09:51:06.259Z,22.30
2023-05-19T09:53:34.324Z,23.46
2023-05-19T09:56:03.485Z,22.66
2023-05-19T09:58:35.338Z,21.69
2023-05-19T10:01:06.384Z,24.34
2023-05-19T10:03:34.121Z,24.37
2023-05-19T10:06:09.160Z,24.68
2023-05-19T10:08:37.642Z,24.64
2023-05-19T10:11:08.635Z,25.22
2023-05-19T10:13:38.602Z,24.61
2023-05-19T10:16:06.195Z,24.60
2023-05-19T10:18:33.573Z,24.09
2023-05-19T10:21:00.984Z,23.28
2023-05-19T10:23:27.575Z,23.98
2023-05-19T10:25:58.278Z,24.53
2023-05-19T10:28:28.161Z,24.64
2023-05-19T10:30:58.788Z,24.42
2023-05-19T10:33:40.958Z,24.93
2023-05-19T10:36:33.175Z,23.87
2023-05-19T10:39:17.822Z,22.23
2023-05-19T10:41:47.324Z,22.80
2023-05-19T10:44:25.768Z,23.96
2023-05-19T10:46:54.301Z,23.76
2023-05-19T10:49:23.673Z,23.16
2023-05-19T10:51:52.038Z,23.74
2023-05-19T10:54:47.313Z,24.78
2023-05-19T10:57:17.827Z,23.90
2023-05-19T10:59:44.877Z,25.55
2023-05-19T11:02:39.813Z,26.77
2023-05-19T11:05:18.406Z,27.62
2023-05-19T11:07:57.206Z,25.70
2023-05-19T11:10:24.858Z,24.83
2023-05-19T11:12:52.230Z,25.16
2023-05-19T11:15:19.017Z,26.32
2023-05-19T11:17:48.549Z,27.38
2023-05-19T11:20:25.633Z,26.94
2023-05-19T11:23:05.928Z,26.72
2023-05-19T11:25:49.574Z,27.51
2023-05-19T11:28:19.446Z,27.11
2023-05-19T11:30:50.639Z,25.64
2023-05-19T11:33:19.403Z,24.13
2023-05-19T11:35:47.062Z,23.66
2023-05-19T11:38:14.222Z,24.41
2023-05-19T11:40:42.928Z,22.88
2023-05-19T11:43:09.415Z,24.67
2023-05-19T11:45:36.380Z,25.57
2023-05-19T11:48:03.816Z,26.29
2023-05-19T11:50:31.909Z,26.80
2023-05-19T11:53:00.331Z,27.25
2023-05-19T11:55:27.560Z,28.26
2023-05-19T11:58:03.991Z,27.31
2023-05-19T12:00:40.217Z,27.93
2023-05-19T12:03:08.321Z,27.23
2023-05-19T12:05:40.884Z,27.17
2023-05-19T12:08:09.828Z,27.89
2023-05-19T12:10:38.239Z,28.63
2023-05-19T12:13:08.904Z,28.06
2023-05-19T12:15:36.532Z,27.65
2023-05-19T12:18:03.509Z,26.73
2023-05-19T12:20:35.471Z,25.44
2023-05-19T12:23:03.016Z,26.88
2023-05-19T12:25:31.222Z,27.72
2023-05-19T12:27:59.809Z,27.30
2023-05-19T12:30:28.809Z,25.37
2023-05-19T12:32:59.380Z,25.46
2023-05-19T12:35:30.592Z,25.71
2023-05-19T12:37:57.828Z,26.77
2023-05-19T12:40:26.293Z,27.82
2023-05-19T12:42:58.880Z,27.54
2023-05-19T12:45:28.010Z,26.76
2023-05-19T12:47:55.345Z,28.06
2023-05-19T12:50:22.138Z,27.81
2023-05-19T12:52:53.278Z,26.97
2023-05-19T12:55:21.003Z,27.05
2023-05-19T12:57:57.961Z,27.55
2023-05-19T13:00:28.134Z,27.71
2023-05-19T13:03:08.633Z,28.39
2023-05-19T13:05:43.433Z,28.68
2023-05-19T13:08:11.945Z,28.72
2023-05-19T13:10:40.179Z,27.34
2023-05-19T13:13:07.809Z,27.79
2023-05-19T13:15:37.809Z,28.20
2023-05-19T13:18:06.408Z,28.48
2023-05-19T13:20:33.516Z,28.52
2023-05-19T13:23:00.468Z,28.85
2023-05-19T13:25:27.434Z,28.75
2023-05-19T13:27:59.307Z,28.58
2023-05-19T13:30:26.148Z,29.19
2023-05-19T13:32:52.760Z,29.15
2023-05-19T13:35:19.696Z,28.54
2023-05-19T13:37:46.482Z,28.68
2023-05-19T13:40:13.482Z,25.97
2023-05-19T13:42:40.643Z,25.03
2023-05-19T13:45:07.816Z,26.18
2023-05-19T13:47:34.395Z,26.46
2023-05-19T13:50:04.416Z,27.90
2023-05-19T13:52:31.269Z,28.20
2023-05-19T13:54:57.853Z,26.67
2023-05-19T13:57:25.534Z,25.82
2023-05-19T14:00:02.026Z,25.33
2023-05-19T14:02:29.959Z,24.71
2023-05-19T14:04:56.966Z,24.21
2023-05-19T14:07:23.665Z,25.12
2023-05-19T14:09:51.189Z,25.87
2023-05-19T14:12:17.932Z,26.18
2023-05-19T14:14:44.731Z,26.84
2023-05-19T14:17:12.194Z,27.04
2023-05-19T14:19:38.952Z,27.82
2023-05-19T14:22:05.899Z,28.68
2023-05-19T14:24:32.630Z,28.94
2023-05-19T14:26:59.169Z,27.79
2023-05-19T14:29:27.663Z,27.97
2023-05-19T14:31:54.213Z,28.21
2023-05-19T14:34:21.174Z,27.86
2023-05-19T14:36:48.651Z,27.63
2023-05-19T14:39:15.728Z,28.36
2023-05-19T14:41:42.409Z,27.24
2023-05-19T14:44:08.868Z,26.01
2023-05-19T14:46:36.169Z,26.16
2023-05-19T14:49:03.518Z,27.07
2023-05-19T14:51:30.078Z,27.49
2023-05-19T14:53:56.643Z,27.58
2023-05-19T14:56:23.358Z,27.44
2023-05-19T14:58:49.961Z,27.63
2023-05-19T15:01:16.542Z,26.98
2023-05-19T15:03:43.111Z,26.70
2023-05-19T15:06:13.084Z,27.39
2023-05-19T15:08:40.776Z,27.34
2023-05-19T15:11:07.754Z,27.27
2023-05-19T15:13:34.413Z,27.76
2023-05-19T15:16:15.576Z,27.25
2023-05-19T15:18:43.422Z,25.78
2023-05-19T15:21:10.209Z,25.10
2023-05-19T15:23:36.715Z,25.57
2023-05-19T15:26:03.330Z,25.57
2023-05-19T15:28:29.935Z,26.02
2023-05-19T15:30:56.520Z,26.28
2023-05-19T15:33:23.058Z,26.45
2023-05-19T15:35:51.696Z,26.08
2023-05-19T15:38:19.253Z,26.55
2023-05-19T15:40:46.638Z,26.77
2023-05-19T15:43:13.458Z,26.84
2023-05-19T15:45:40.011Z,26.63
2023-05-19T15:48:06.834Z,26.18
2023-05-19T15:50:33.889Z,26.49
2023-05-19T15:53:00.717Z,26.65
2023-05-19T15:55:27.220Z,26.33
2023-05-19T15:57:53.809Z,25.91
2023-05-19T16:00:20.499Z,25.74
2023-05-19T16:02:47.113Z,26.04
2023-05-19T16:05:13.737Z,26.04
2023-05-19T16:07:42.000Z,26.12
2023-05-19T16:10:09.091Z,25.92
2023-05-19T16:12:36.637Z,26.19
2023-05-19T16:15:03.731Z,26.33
2023-05-19T16:17:30.510Z,25.80
2023-05-19T16:19:57.056Z,25.92
2023-05-19T16:22:24.797Z,25.81
2023-05-19T16:24:52.254Z,25.81
2023-05-19T16:27:18.981Z,25.71
2023-05-19T16:29:45.651Z,25.80
2023-05-19T16:32:12.830Z,25.29
2023-05-19T16:34:39.711Z,25.29
2023-05-19T16:37:06.256Z,25.15
2023-05-19T16:39:33.197Z,25.18
2023-05-19T16:41:59.802Z,25.15
2023-05-19T16:44:26.615Z,25.19
2023-05-19T16:46:53.166Z,25.00
2023-05-19T16:49:19.687Z,24.64
2023-05-19T16:51:47.577Z,24.57
2023-05-19T16:54:15.453Z,24.65
2023-05-19T16:56:41.953Z,24.73
2023-05-19T16:59:09.375Z,24.79
2023-05-19T17:01:36.121Z,24.65
2023-05-19T17:04:02.631Z,24.27
2023-05-19T17:06:29.362Z,23.97
2023-05-19T17:08:55.960Z,23.79
2023-05-19T17:11:22.850Z,23.46
2023-05-19T17:13:49.382Z,23.58
2023-05-19T17:16:16.030Z,23.82
2023-05-19T17:18:43.821Z,23.82
2023-05-19T17:21:10.676Z,23.39
2023-05-19T17:23:38.154Z,23.25
2023-05-19T17:26:04.942Z,22.99
2023-05-19T17:28:31.749Z,22.91
2023-05-19T17:30:58.461Z,22.77
2023-05-19T17:33:25.138Z,22.73
2023-05-19T17:35:51.744Z,22.57
2023-05-19T17:38:18.317Z,22.76
2023-05-19T17:40:44.805Z,22.71
2023-05-19T17:43:11.441Z,22.70
2023-05-19T17:45:37.992Z,22.56
2023-05-19T17:48:05.121Z,22.46
2023-05-19T17:50:31.965Z,22.36
2023-05-19T17:52:59.062Z,22.36
2023-05-19T17:57:37.179Z,22.20
2023-05-19T18:00:04.395Z,22.03
2023-05-19T18:02:31.487Z,21.86
2023-05-19T18:04:58.309Z,21.65
2023-05-19T18:07:27.776Z,21.67
2023-05-19T18:09:56.086Z,21.68
2023-05-19T18:12:22.828Z,21.48
2023-05-19T18:14:52.445Z,21.13
2023-05-19T18:17:18.949Z,20.82
2023-05-19T18:19:45.797Z,20.58
2023-05-19T18:22:14.772Z,20.45
2023-05-19T18:24:41.519Z,20.28
2023-05-19T18:27:08.055Z,20.14
2023-05-19T18:29:34.852Z,20.03
2023-05-19T18:32:01.443Z,19.88
2023-05-19T18:34:29.480Z,19.80
2023-05-19T18:36:56.212Z,19.70
2023-05-19T18:39:22.730Z,19.60
2023-05-19T18:41:49.760Z,19.43
2023-05-19T18:44:16.306Z,19.42
2023-05-19T18:46:42.858Z,19.36
2023-05-19T18:49:11.602Z,19.34
2023-05-19T18:51:38.568Z,19.22
2023-05-19T18:54:05.312Z,19.16
2023-05-19T18:56:33.245Z,19.08
2023-05-19T18:58:59.949Z,18.88
2023-05-19T19:01:26.669Z,18.74
2023-05-19T19:03:53.313Z,18.78
2023-05-19T19:06:23.351Z,18.68
2023-05-19T19:08:50.170Z,18.58
2023-05-19T19:11:16.821Z,18.60
2023-05-19T19:13:43.740Z,18.54
2023-05-19T19:16:10.689Z,18.46
2023-05-19T19:18:37.450Z,18.41
2023-05-19T19:21:05.966Z,18.44
2023-05-19T19:23:32.934Z,18.33
2023-05-19T19:25:59.665Z,18.10
2023-05-19T19:28:26.492Z,18.02
2023-05-19T19:30:53.059Z,17.98
2023-05-19T19:33:19.632Z,17.89
2023-05-19T19:35:49.028Z,17.77
2023-05-19T19:38:15.650Z,17.79
2023-05-19T19:40:42.210Z,17.75
2023-05-19T19:43:08.741Z,17.75
2023-05-19T19:45:36.442Z,17.74
2023-05-19T19:48:03.027Z,17.62
2023-05-19T19:50:29.575Z,17.54
2023-05-19T19:52:56.103Z,17.38
2023-05-19T19:55:22.691Z,17.44
2023-05-19T19:57:51.072Z,17.34
2023-05-19T20:00:18.570Z,17.31
2023-05-19T20:03:02.837Z,17.27
2023-05-19T20:05:29.902Z,17.27
2023-05-19T20:07:56.493Z,17.26
2023-05-19T20:10:23.142Z,17.13
2023-05-19T20:12:50.547Z,17.03
2023-05-19T20:15:17.300Z,16.95
2023-05-19T20:17:43.876Z,16.96
2023-05-19T20:20:12.208Z,16.86
2023-05-19T20:22:39.479Z,16.73
2023-05-19T20:25:07.020Z,16.69
2023-05-19T20:27:33.709Z,16.67
2023-05-19T20:30:00.257Z,16.71
2023-05-19T20:32:26.982Z,16.69
2023-05-19T20:34:53.573Z,16.61
2023-05-19T20:37:21.620Z,16.67
2023-05-19T20:39:48.193Z,16.62
2023-05-19T20:42:14.839Z,16.64
2023-05-19T20:44:41.623Z,16.48
2023-05-19T20:47:08.509Z,16.48
2023-05-19T20:49:35.097Z,16.44
2023-05-19T20:52:01.859Z,16.40
2023-05-19T20:54:28.400Z,16.30
2023-05-19T20:56:54.929Z,16.31
2023-05-19T20:59:21.880Z,16.20
2023-05-19T21:01:48.456Z,16.21
2023-05-19T21:04:15.062Z,16.20
2023-05-19T21:06:41.692Z,16.11
2023-05-19T21:09:08.226Z,16.11
2023-05-19T21:11:34.754Z,15.93
2023-05-19T21:14:04.168Z,15.99
2023-05-19T21:16:31.468Z,15.94
2023-05-19T21:18:58.423Z,15.99
2023-05-19T21:21:26.186Z,15.85
2023-05-19T21:23:52.787Z,15.85
2023-05-19T21:26:19.399Z,15.77
2023-05-19T21:28:46.180Z,15.77
2023-05-19T21:31:12.798Z,15.76
2023-05-19T21:33:39.660Z,15.70
2023-05-19T21:36:06.482Z,15.79
2023-05-19T21:38:33.018Z,15.69
2023-05-19T21:40:59.512Z,15.61
2023-05-19T21:43:26.498Z,15.61
2023-05-19T21:45:53.010Z,15.58
2023-05-19T21:48:19.778Z,15.55
2023-05-19T21:50:46.429Z,15.58
2023-05-19T21:53:12.922Z,15.55
2023-05-19T21:55:39.432Z,15.48
2023-05-19T21:58:06.181Z,15.45
2023-05-19T22:00:33.042Z,15.42
2023-05-19T22:02:59.943Z,15.38
2023-05-19T22:05:27.045Z,15.30
2023-05-19T22:07:53.624Z,15.32
2023-05-19T22:10:20.213Z,15.27
2023-05-19T22:12:47.062Z,15.22
2023-05-19T22:15:14.415Z,15.32
2023-05-19T22:17:41.072Z,15.25
2023-05-19T22:20:08.289Z,15.18
2023-05-19T22:22:35.407Z,15.21
2023-05-19T22:25:02.743Z,15.14
2023-05-19T22:27:29.253Z,15.11
2023-05-19T22:29:55.737Z,15.14
2023-05-19T22:32:22.231Z,15.00
2023-05-19T22:34:48.855Z,15.01
2023-05-19T22:37:15.372Z,14.95
2023-05-19T22:39:42.169Z,14.91
2023-05-19T22:42:08.757Z,14.98
2023-05-19T22:44:35.331Z,15.04
2023-05-19T22:47:01.828Z,14.97
2023-05-19T22:49:29.953Z,14.90
2023-05-19T22:51:56.445Z,14.93
2023-05-19T22:54:22.973Z,14.81
2023-05-19T22:56:49.529Z,14.70
2023-05-19T22:59:17.912Z,14.66
2023-05-19T23:01:46.560Z,14.64
2023-05-19T23:04:14.048Z,14.63
2023-05-19T23:06:40.741Z,14.57
2023-05-19T23:09:07.705Z,14.55
2023-05-19T23:11:35.847Z,14.52
2023-05-19T23:14:02.505Z,14.49
2023-05-19T23:16:29.204Z,14.52
2023-05-19T23:18:55.794Z,14.52
2023-05-19T23:21:22.356Z,14.40
2023-05-19T23:23:49.674Z,14.46
2023-05-19T23:26:16.198Z,14.36
2023-05-19T23:28:43.367Z,14.43
2023-05-19T23:31:10.360Z,14.33
2023-05-19T23:33:37.138Z,14.30
2023-05-19T23:36:08.044Z,14.23
2023-05-19T23:38:35.450Z,14.19
2023-05-19T23:41:02.776Z,14.18
2023-05-19T23:43:29.326Z,14.04
2023-05-19T23:45:56.014Z,13.94
2023-05-19T23:48:22.526Z,13.90
2023-05-19T23:50:49.198Z,13.91
2023-05-19T23:53:15.922Z,14.00
2023-05-19T23:55:42.453Z,13.84
